Sumneytown, PA (18084)

8:29 PM EDT on April 21, 2015 (GMT -0400)
Woxall, Back yard | | Change Station
CLOSE
Current Station
Personal Weather Station
Location: Harleysville, PA
Elevation: 430 ft
Nearby Weather Stations

Elev 430 ft 40.31 °N, 75.44 °W | Updated 40 seconds ago

Clear
Clear
52.5 °F
Feels Like 52.5 °F
N
0.0
Wind Variable Wind from West
Gusts 0.0 mph

Today
High -- | Low -- °F
--% Chance of Precip.
Yesterday
High -- | Low -- °F
Precip. -- in
6:15 AM 7:46 PM
Waxing Crescent, 13% visible
Pressure 29.76 in
Visibility 10.0 miles
Clouds Clear
Dew Point 26 °F
Humidity 35%
Rainfall 0.40 in
Snow Depth Not available.
UV 0 out of 12
Pollen 9.60 out of 12
Air Quality Not available.
Flu Activity Sporadic
METAR KPTW 212354Z AUTO 23003KT 10SM CLR 14/M03 A2977 RMK AO2 SLP077 T01441028 10172 20144 51015

More Conditions Fewer Conditions

Pressure 29.76 in
Visibility 10.0 miles
Clouds Clear
Dew Point 26 °F
Humidity 35%
Rainfall 0.40 in
Snow Depth Not available.
UV 0 out of 12
Pollen 9.60 out of 12
Air Quality Not available.
Flu Activity Sporadic
METAR KPTW 212354Z AUTO 23003KT 10SM CLR 14/M03 A2977 RMK AO2 SLP077 T01441028 10172 20144 51015

More Conditions Fewer Conditions

10-Day Weather Forecast

Almanac

Astronomy

Apr. 21, 2015 Rise Set
Actual Time
Civil Twilight
Nautical Twilight
Astronomical Twilight
Moon
Length of Visible Light
Length of Day
Tomorrow will be .
, % of the Moon is Illuminated

Today's Extremes

State Highs State Lows

Community

WunderPhotos

Upload Photos

1,815,588 photos uploaded!

WunderBlogs® & News

Nearby

Air Quality

  Air Quality AQ Index Pollutant
Not available.

Snow Depth

Station Depth Elevation

Earthquake Activity

City Distance Mag. Time & Date
Minimum magnitude displayed is 2.5.

Coastal Water Temperatures

Place Temperature

Stations

Nearby Weather Stations

Station Location Temp. Windchill Dew Point Humidity Wind Precip. Elev Updated Type